Time;durP1;ratioP1;P1;durP2;ratioP2;P2;SDS_P1;SDS_P2;PMS_P1;PMS_P2;Temp;Humidity;BMP_temperature;BMP_pressure;BME280_temperature;BME280_humidity;BME280_pressure;Samples;Min_cycle;Max_cycle;Signal;HPM_P1;HPM_P2
2021/11/26 06:47:10;;;;;;;;;;;20.10;59.10;;;;;;5089618;28;19918;-68
2021/11/26 06:49:36;;;;;;;;;;;20.10;60.70;;;;;;5089606;28;19913;-73
2021/11/26 06:52:01;;;;;;;;;;;20.30;62.10;;;;;;5089064;28;19918;-67
2021/11/26 06:54:27;;;;;;;;;;;20.50;62.80;;;;;;5089359;28;19934;-70
2021/11/26 06:56:52;;;;;;;;;;;20.60;63.10;;;;;;5089328;28;19920;-75
2021/11/26 06:59:18;;;;;;;;;;;20.80;63.20;;;;;;5089687;28;19934;-67
2021/11/26 07:01:43;;;;;;;;;;;21.00;63.30;;;;;;5089371;28;20253;-66
2021/11/26 07:04:10;;;;;;;;;;;21.20;63.30;;;;;;5089521;28;19933;-72
2021/11/26 07:06:36;;;;;;;;;;;21.30;63.20;;;;;;5088998;28;19912;-76
2021/11/26 07:09:03;;;;;;;;;;;21.40;63.10;;;;;;5089206;28;20257;-70
2021/11/26 07:11:28;;;;;;;;;;;21.60;63.10;;;;;;5089249;28;19915;-68
2021/11/26 07:13:54;;;;;;;;;;;21.70;63.00;;;;;;5089045;28;19912;-65
2021/11/26 07:16:19;;;;;;;;;;;21.80;63.00;;;;;;5088923;28;19921;-64
2021/11/26 07:18:45;;;;;;;;;;;21.90;63.00;;;;;;5088904;28;19978;-65
2021/11/26 07:21:10;;;;;;;;;;;21.90;63.00;;;;;;5088381;28;20004;-68
2021/11/26 07:23:36;;;;;;;;;;;22.00;63.00;;;;;;5088736;28;20323;-69
2021/11/26 07:26:01;;;;;;;;;;;22.10;62.90;;;;;;5088786;28;19916;-70
2021/11/26 07:28:27;;;;;;;;;;;22.10;62.80;;;;;;5088808;28;19908;-69
2021/11/26 07:30:52;;;;;;;;;;;22.10;62.80;;;;;;5088761;28;19916;-69
2021/11/26 07:33:18;;;;;;;;;;;22.20;62.80;;;;;;5085650;28;19916;-70
2021/11/26 07:35:43;;;;;;;;;;;22.30;62.80;;;;;;5086677;28;19917;-71
2021/11/26 07:38:08;;;;;;;;;;;22.30;62.70;;;;;;5086465;28;19954;-67
2021/11/26 07:40:34;;;;;;;;;;;22.30;62.60;;;;;;5088445;28;19909;-69
2021/11/26 07:42:59;;;;;;;;;;;22.40;62.60;;;;;;5088435;28;19909;-69
2021/11/26 07:45:25;;;;;;;;;;;22.40;62.50;;;;;;5094126;28;19927;-70
2021/11/26 07:47:51;;;;;;;;;;;22.40;62.40;;;;;;5108727;28;19909;-68
2021/11/26 07:50:16;;;;;;;;;;;22.50;62.40;;;;;;5110115;28;20337;-68
2021/11/26 07:52:42;;;;;;;;;;;22.50;62.30;;;;;;5108232;28;19911;-66
2021/11/26 07:55:08;;;;;;;;;;;22.50;62.20;;;;;;5110777;28;19923;-72
2021/11/26 07:57:35;;;;;;;;;;;22.60;62.30;;;;;;5105724;28;19931;-72
2021/11/26 08:00:01;;;;;;;;;;;22.60;62.20;;;;;;5094895;28;19909;-70
2021/11/26 08:02:27;;;;;;;;;;;22.60;62.10;;;;;;5093730;28;20283;-68
2021/11/26 08:04:52;;;;;;;;;;;22.70;62.10;;;;;;5093805;28;19908;-69
2021/11/26 08:07:17;;;;;;;;;;;22.70;62.00;;;;;;5092843;28;19954;-69
2021/11/26 08:09:43;;;;;;;;;;;22.70;62.00;;;;;;5094316;28;20352;-70
2021/11/26 08:12:08;;;;;;;;;;;22.80;62.00;;;;;;5094800;28;20023;-70
2021/11/26 08:14:34;;;;;;;;;;;22.80;61.90;;;;;;5094458;28;19908;-70
2021/11/26 08:16:59;;;;;;;;;;;22.80;61.80;;;;;;5093048;28;19916;-69
2021/11/26 08:19:25;;;;;;;;;;;22.80;61.70;;;;;;5093925;28;19961;-71
2021/11/26 08:21:52;;;;;;;;;;;22.80;61.70;;;;;;5094361;28;19961;-71
2021/11/26 08:24:18;;;;;;;;;;;22.90;61.70;;;;;;5094246;28;19919;-70
2021/11/26 08:26:43;;;;;;;;;;;22.90;61.60;;;;;;5076068;28;20116;-70
2021/11/26 08:29:09;;;;;;;;;;;22.90;61.60;;;;;;5094279;28;19938;-70
2021/11/26 08:31:35;;;;;;;;;;;22.90;61.50;;;;;;5093725;28;19908;-70
2021/11/26 08:34:01;;;;;;;;;;;22.90;61.40;;;;;;5094159;28;19998;-68
2021/11/26 08:36:26;;;;;;;;;;;22.90;61.40;;;;;;5094017;28;19916;-70
2021/11/26 08:38:52;;;;;;;;;;;22.90;61.30;;;;;;5093976;28;19916;-69
2021/11/26 08:41:18;;;;;;;;;;;22.90;61.20;;;;;;5094000;28;20318;-70
2021/11/26 08:43:44;;;;;;;;;;;22.90;61.10;;;;;;5093957;28;19912;-70
2021/11/26 08:46:09;;;;;;;;;;;22.90;61.10;;;;;;5093146;28;19924;-69
2021/11/26 08:48:35;;;;;;;;;;;22.90;61.10;;;;;;5093885;28;19908;-71
2021/11/26 08:51:00;;;;;;;;;;;23.00;61.10;;;;;;5093847;28;19987;-70
2021/11/26 08:53:26;;;;;;;;;;;23.00;61.00;;;;;;5093694;28;19961;-70
2021/11/26 08:55:55;;;;;;;;;;;23.00;61.00;;;;;;5093660;28;19926;-70
2021/11/26 08:58:21;;;;;;;;;;;23.00;60.90;;;;;;5093610;28;20383;-70
2021/11/26 09:00:47;;;;;;;;;;;23.00;60.80;;;;;;5091285;28;20288;-68
2021/11/26 09:03:12;;;;;;;;;;;23.00;60.80;;;;;;5092524;28;20368;-68
2021/11/26 09:05:38;;;;;;;;;;;23.00;60.70;;;;;;5091873;28;19909;-69
2021/11/26 09:08:04;;;;;;;;;;;23.00;60.70;;;;;;5092740;28;20260;-69
2021/11/26 09:10:31;;;;;;;;;;;23.00;60.60;;;;;;5091950;28;20057;-69
2021/11/26 09:12:57;;;;;;;;;;;23.00;60.60;;;;;;5093343;28;20349;-69
2021/11/26 09:15:23;;;;;;;;;;;23.00;60.50;;;;;;5092690;28;20010;-67
2021/11/26 09:17:49;;;;;;;;;;;23.10;60.50;;;;;;5072879;28;20003;-68
2021/11/26 09:20:14;;;;;;;;;;;23.10;60.50;;;;;;5092334;28;19999;-69
2021/11/26 09:22:40;;;;;;;;;;;23.10;60.40;;;;;;5092754;28;20210;-69
2021/11/26 09:25:06;;;;;;;;;;;23.10;60.30;;;;;;5093186;28;19909;-68
2021/11/26 09:27:31;;;;;;;;;;;23.10;60.30;;;;;;5093377;28;19908;-70
2021/11/26 09:29:57;;;;;;;;;;;23.00;60.20;;;;;;5092443;28;19914;-69
2021/11/26 09:32:23;;;;;;;;;;;23.10;60.20;;;;;;5092865;28;19977;-69
2021/11/26 09:34:49;;;;;;;;;;;23.00;60.10;;;;;;5092733;28;19915;-69
2021/11/26 09:37:14;;;;;;;;;;;23.10;60.10;;;;;;5092845;28;19914;-68
2021/11/26 09:39:40;;;;;;;;;;;23.10;60.10;;;;;;5100329;28;20572;-69
2021/11/26 09:42:05;;;;;;;;;;;23.10;60.00;;;;;;5104183;28;19961;-69
2021/11/26 09:44:33;;;;;;;;;;;23.10;60.00;;;;;;5092366;28;19953;-70
2021/11/26 09:46:59;;;;;;;;;;;23.10;60.00;;;;;;5092640;28;19931;-69
2021/11/26 09:49:25;;;;;;;;;;;23.10;59.90;;;;;;5092622;28;19908;-69
2021/11/26 09:51:50;;;;;;;;;;;23.10;59.90;;;;;;5092470;28;19909;-68
2021/11/26 09:54:16;;;;;;;;;;;23.10;59.80;;;;;;5074546;28;19908;-63
2021/11/26 09:56:41;;;;;;;;;;;23.10;59.80;;;;;;5092502;28;19920;-69
2021/11/26 09:59:07;;;;;;;;;;;23.10;59.80;;;;;;5092091;28;20312;-70
2021/11/26 10:01:33;;;;;;;;;;;23.10;59.70;;;;;;5092429;28;20407;-69
2021/11/26 10:03:58;;;;;;;;;;;23.10;59.60;;;;;;5092124;28;19919;-70
2021/11/26 10:06:24;;;;;;;;;;;23.20;59.60;;;;;;5092351;28;19995;-71
2021/11/26 10:08:55;;;;;;;;;;;23.10;59.50;;;;;;5092141;28;19908;-70
2021/11/26 10:11:25;;;;;;;;;;;23.20;59.60;;;;;;5092351;28;19908;-66
2021/11/26 10:13:50;;;;;;;;;;;23.20;59.50;;;;;;5091708;28;19909;-71
2021/11/26 10:16:16;;;;;;;;;;;23.20;59.40;;;;;;5092528;28;19931;-69
2021/11/26 10:18:46;;;;;;;;;;;23.20;59.40;;;;;;5091954;28;19919;-70
2021/11/26 10:21:12;;;;;;;;;;;23.20;59.30;;;;;;5089340;28;19922;-70
2021/11/26 10:23:42;;;;;;;;;;;23.20;59.20;;;;;;5092072;28;19915;-70
2021/11/26 10:26:11;;;;;;;;;;;23.20;59.20;;;;;;5092160;28;19908;-69
2021/11/26 10:28:38;;;;;;;;;;;23.30;59.10;;;;;;5091613;28;19915;-69
2021/11/26 10:31:04;;;;;;;;;;;23.30;59.10;;;;;;5091980;28;19916;-70
2021/11/26 10:33:34;;;;;;;;;;;23.30;59.00;;;;;;5092018;28;19908;-69
2021/11/26 10:36:01;;;;;;;;;;;23.30;59.00;;;;;;5098354;28;19923;-68
2021/11/26 10:38:30;;;;;;;;;;;23.30;58.90;;;;;;5112492;28;19988;-67
2021/11/26 10:40:57;;;;;;;;;;;23.20;58.90;;;;;;5112246;28;19907;-67
2021/11/26 10:43:38;;;;;;;;;;;23.20;58.90;;;;;;5093563;28;20294;-69
2021/11/26 10:48:51;;;;;;;;;;;23.10;58.70;;;;;;5092053;28;19908;-70
2021/11/26 10:51:35;;;;;;;;;;;23.20;58.70;;;;;;5091967;28;19999;-69
2021/11/26 10:57:24;;;;;;;;;;;23.10;58.70;;;;;;5091279;28;19976;-68
2021/11/26 10:59:48;;;;;;;;;;;23.20;58.70;;;;;;5091389;28;19908;-68
2021/11/26 11:02:24;;;;;;;;;;;23.20;58.60;;;;;;5091763;28;19912;-68
2021/11/26 11:04:49;;;;;;;;;;;23.10;58.50;;;;;;5092180;28;20425;-70
2021/11/26 11:07:15;;;;;;;;;;;23.20;58.50;;;;;;5091842;28;19909;-66
2021/11/26 11:09:50;;;;;;;;;;;23.20;58.50;;;;;;5091586;28;19931;-67
2021/11/26 11:12:15;;;;;;;;;;;23.20;58.40;;;;;;5091858;28;19908;-66
2021/11/26 11:14:52;;;;;;;;;;;23.20;58.40;;;;;;5105225;28;19908;-65
2021/11/26 11:17:19;;;;;;;;;;;23.20;58.40;;;;;;5091683;28;19916;-65
2021/11/26 11:19:45;;;;;;;;;;;23.20;58.30;;;;;;5091823;28;19915;-66
2021/11/26 11:22:10;;;;;;;;;;;23.20;58.30;;;;;;5095763;28;19912;-65
2021/11/26 11:24:36;;;;;;;;;;;23.20;58.30;;;;;;5111931;28;20363;-66
2021/11/26 11:27:01;;;;;;;;;;;23.20;58.30;;;;;;5111375;28;19908;-65
2021/11/26 11:29:27;;;;;;;;;;;23.20;58.20;;;;;;5111770;28;19908;-64
2021/11/26 11:31:54;;;;;;;;;;;23.20;58.20;;;;;;5112097;28;20347;-66
2021/11/26 11:34:22;;;;;;;;;;;23.20;58.20;;;;;;5115833;28;20272;-65
2021/11/26 11:36:47;;;;;;;;;;;23.20;58.10;;;;;;5115635;28;19915;-66
2021/11/26 11:39:13;;;;;;;;;;;23.20;58.10;;;;;;5097436;28;19908;-66
2021/11/26 11:41:44;;;;;;;;;;;23.20;58.10;;;;;;5115022;28;19908;-65
2021/11/26 11:44:20;;;;;;;;;;;23.30;58.10;;;;;;5115431;28;20018;-65
2021/11/26 11:46:45;;;;;;;;;;;23.30;58.10;;;;;;5115374;28;19920;-65
2021/11/26 11:49:21;;;;;;;;;;;23.30;58.00;;;;;;5115417;28;19908;-65
2021/11/26 11:51:46;;;;;;;;;;;23.30;58.00;;;;;;5115322;28;19908;-65
2021/11/26 11:54:13;;;;;;;;;;;23.30;58.00;;;;;;5097296;28;19911;-65
2021/11/26 11:56:43;;;;;;;;;;;23.30;57.90;;;;;;5114601;28;19939;-66
2021/11/26 11:59:09;;;;;;;;;;;23.30;57.90;;;;;;5098168;28;20037;-66
2021/11/26 12:01:41;;;;;;;;;;;23.30;57.90;;;;;;5095064;28;20052;-63
2021/11/26 12:04:35;;;;;;;;;;;23.30;57.80;;;;;;5094823;28;19947;-68
2021/11/26 12:07:01;;;;;;;;;;;23.30;57.80;;;;;;5093237;28;19908;-71
2021/11/26 12:09:30;;;;;;;;;;;23.30;57.70;;;;;;5094375;28;19908;-71
2021/11/26 12:12:03;;;;;;;;;;;23.30;57.70;;;;;;5094516;28;20006;-65
2021/11/26 12:14:29;;;;;;;;;;;23.30;57.70;;;;;;5094467;28;19973;-66
2021/11/26 12:19:40;;;;;;;;;;;23.30;57.60;;;;;;5094794;28;19916;-66
2021/11/26 12:22:08;;;;;;;;;;;23.30;57.60;;;;;;5094497;28;20418;-72
2021/11/26 12:24:36;;;;;;;;;;;23.40;57.60;;;;;;5073845;28;19908;-71
2021/11/26 12:27:02;;;;;;;;;;;23.40;57.60;;;;;;5074384;28;19916;-71
2021/11/26 12:29:38;;;;;;;;;;;23.40;57.60;;;;;;5074185;28;19916;-66
2021/11/26 12:32:08;;;;;;;;;;;23.40;57.50;;;;;;5074139;28;19908;-67
2021/11/26 12:34:53;;;;;;;;;;;23.40;57.50;;;;;;5074154;28;20356;-73
2021/11/26 12:37:20;;;;;;;;;;;23.40;57.50;;;;;;5074498;28;20241;-71
2021/11/26 12:39:46;;;;;;;;;;;23.50;57.50;;;;;;5073286;28;19908;-61
2021/11/26 12:42:12;;;;;;;;;;;23.50;57.60;;;;;;5074066;28;20390;-67
2021/11/26 12:44:37;;;;;;;;;;;23.50;57.50;;;;;;5073460;28;19962;-67
2021/11/26 12:47:06;;;;;;;;;;;23.50;57.50;;;;;;5083219;28;19959;-68
2021/11/26 12:52:08;;;;;;;;;;;23.60;57.50;;;;;;5114470;28;19908;-67
2021/11/26 12:54:34;;;;;;;;;;;23.60;57.50;;;;;;5113573;28;19961;-68
2021/11/26 12:57:04;;;;;;;;;;;23.60;57.50;;;;;;5114103;28;19916;-66
2021/11/26 12:59:30;;;;;;;;;;;23.60;57.60;;;;;;5114041;28;20049;-66
2021/11/26 13:01:55;;;;;;;;;;;23.50;57.60;;;;;;5114042;28;20365;-66
2021/11/26 13:04:21;;;;;;;;;;;23.50;57.60;;;;;;5113974;28;19960;-65
2021/11/26 13:06:48;;;;;;;;;;;23.50;57.70;;;;;;5098875;28;19908;-64
2021/11/26 13:09:13;;;;;;;;;;;23.50;57.70;;;;;;5092952;28;19908;-67
2021/11/26 13:11:39;;;;;;;;;;;23.50;57.70;;;;;;5091995;28;20375;-65
2021/11/26 13:14:06;;;;;;;;;;;23.50;57.70;;;;;;5091964;28;19999;-65
2021/11/26 13:16:32;;;;;;;;;;;23.40;57.60;;;;;;5093251;28;19955;-67
2021/11/26 13:18:57;;;;;;;;;;;23.40;57.60;;;;;;5075175;28;20004;-65
2021/11/26 13:21:23;;;;;;;;;;;23.40;57.60;;;;;;5092798;28;19953;-66
2021/11/26 13:23:48;;;;;;;;;;;23.40;57.70;;;;;;5093122;28;20336;-66
2021/11/26 13:26:14;;;;;;;;;;;23.30;57.60;;;;;;5093017;28;19955;-65
2021/11/26 13:28:42;;;;;;;;;;;23.30;57.60;;;;;;5092866;28;19994;-67
2021/11/26 13:31:08;;;;;;;;;;;23.30;57.60;;;;;;5093126;28;19961;-66
2021/11/26 13:33:35;;;;;;;;;;;23.30;57.60;;;;;;5092905;28;20390;-67
2021/11/26 13:36:02;;;;;;;;;;;23.30;57.50;;;;;;5096874;28;19916;-64
2021/11/26 13:38:34;;;;;;;;;;;23.30;57.50;;;;;;5112791;28;19961;-66
2021/11/26 13:41:01;;;;;;;;;;;23.30;57.40;;;;;;5113471;28;19908;-65
2021/11/26 13:43:29;;;;;;;;;;;23.30;57.30;;;;;;5113322;28;19908;-65
2021/11/26 13:46:17;;;;;;;;;;;23.30;57.30;;;;;;5113135;28;19923;-65
2021/11/26 13:48:44;;;;;;;;;;;23.40;57.30;;;;;;5010579;28;19913;-65
2021/11/26 13:51:10;;;;;;;;;;;23.30;57.20;;;;;;5009802;28;20370;-65
2021/11/26 13:53:37;;;;;;;;;;;23.30;57.10;;;;;;5010452;28;20309;-66
2021/11/26 13:56:03;;;;;;;;;;;23.40;57.10;;;;;;5009924;28;20314;-66
2021/11/26 13:58:30;;;;;;;;;;;23.40;57.00;;;;;;5010422;28;19909;-65
2021/11/26 14:00:56;;;;;;;;;;;23.40;57.00;;;;;;5010433;28;19955;-66
2021/11/26 14:03:29;;;;;;;;;;;23.40;56.90;;;;;;5010436;28;19913;-65
2021/11/26 14:05:55;;;;;;;;;;;23.40;56.90;;;;;;5009563;28;20459;-66
2021/11/26 14:08:20;;;;;;;;;;;23.40;56.80;;;;;;4993853;28;19909;-65
2021/11/26 14:10:53;;;;;;;;;;;23.40;56.80;;;;;;5010345;28;20412;-65
2021/11/26 14:13:19;;;;;;;;;;;23.40;56.80;;;;;;5010031;28;19910;-65
2021/11/26 14:15:45;;;;;;;;;;;23.40;56.70;;;;;;5010055;28;20011;-67
2021/11/26 14:18:12;;;;;;;;;;;23.40;56.70;;;;;;5010060;28;19967;-66
2021/11/26 14:20:39;;;;;;;;;;;23.40;56.70;;;;;;5009667;28;19910;-66
2021/11/26 14:23:08;;;;;;;;;;;23.40;56.70;;;;;;5010180;28;20479;-66
2021/11/26 14:25:34;;;;;;;;;;;23.40;56.60;;;;;;5055103;28;20370;-66
2021/11/26 14:28:09;;;;;;;;;;;23.40;57.20;;;;;;5112512;28;19908;-66
2021/11/26 14:30:34;;;;;;;;;;;23.50;56.60;;;;;;5094256;28;19958;-66
2021/11/26 14:33:02;;;;;;;;;;;23.50;56.50;;;;;;5112360;28;19965;-65
2021/11/26 14:35:29;;;;;;;;;;;23.50;56.50;;;;;;5111876;28;20019;-66
2021/11/26 14:37:58;;;;;;;;;;;23.50;56.40;;;;;;5112467;28;20324;-66
2021/11/26 14:40:25;;;;;;;;;;;23.50;56.40;;;;;;5112278;28;19907;-67
2021/11/26 14:43:09;;;;;;;;;;;23.50;56.40;;;;;;5112351;28;20316;-65
2021/11/26 14:45:39;;;;;;;;;;;23.50;56.30;;;;;;5093973;28;19920;-65
2021/11/26 14:48:11;;;;;;;;;;;23.50;56.30;;;;;;5112031;28;19914;-66
2021/11/26 14:50:37;;;;;;;;;;;23.50;56.30;;;;;;5111706;28;19955;-65
2021/11/26 14:53:10;;;;;;;;;;;23.50;56.20;;;;;;5112286;28;20394;-66
2021/11/26 14:55:35;;;;;;;;;;;23.50;56.20;;;;;;5112014;28;19919;-67
2021/11/26 14:58:00;;;;;;;;;;;23.50;56.20;;;;;;5112292;28;19961;-69
2021/11/26 15:00:26;;;;;;;;;;;23.50;56.20;;;;;;5112195;28;19914;-66
2021/11/26 15:02:51;;;;;;;;;;;23.50;56.20;;;;;;5112428;28;19908;-65
2021/11/26 15:05:17;;;;;;;;;;;23.50;56.20;;;;;;5111639;28;20275;-69
2021/11/26 15:07:43;;;;;;;;;;;23.50;56.30;;;;;;5113744;28;20420;-73
2021/11/26 15:10:08;;;;;;;;;;;23.50;56.20;;;;;;5116248;28;20485;-71
2021/11/26 15:12:35;;;;;;;;;;;23.50;56.20;;;;;;5097796;28;20355;-66
2021/11/26 15:15:00;;;;;;;;;;;23.50;56.20;;;;;;5116347;28;20007;-68
2021/11/26 15:17:26;;;;;;;;;;;23.50;56.10;;;;;;5116104;28;20070;-69
2021/11/26 15:19:52;;;;;;;;;;;23.50;56.10;;;;;;5115693;28;19957;-69
2021/11/26 15:22:18;;;;;;;;;;;23.50;56.10;;;;;;5115921;28;20040;-68
2021/11/26 15:24:43;;;;;;;;;;;23.50;56.00;;;;;;5115912;28;20369;-68
2021/11/26 15:27:09;;;;;;;;;;;23.50;56.00;;;;;;5115734;28;19908;-67
2021/11/26 15:29:34;;;;;;;;;;;23.50;56.00;;;;;;5115773;28;19915;-67
2021/11/26 15:32:00;;;;;;;;;;;23.50;55.90;;;;;;5115851;28;20376;-67
2021/11/26 15:34:25;;;;;;;;;;;23.50;55.90;;;;;;5115268;28;19943;-67
2021/11/26 15:36:51;;;;;;;;;;;23.50;55.80;;;;;;5115526;28;19916;-68
2021/11/26 15:39:17;;;;;;;;;;;23.50;55.80;;;;;;5115515;28;19915;-68
2021/11/26 15:41:43;;;;;;;;;;;23.50;55.80;;;;;;5115293;28;20468;-68
2021/11/26 15:44:09;;;;;;;;;;;23.50;55.70;;;;;;5115517;28;19907;-68
2021/11/26 15:46:35;;;;;;;;;;;23.50;55.70;;;;;;5115172;28;20307;-68
2021/11/26 15:49:01;;;;;;;;;;;23.60;55.70;;;;;;5115474;28;20290;-68
2021/11/26 15:51:27;;;;;;;;;;;23.50;55.70;;;;;;5115742;28;19908;-68
2021/11/26 15:53:52;;;;;;;;;;;23.60;55.70;;;;;;5115439;28;19911;-67
2021/11/26 15:56:18;;;;;;;;;;;23.50;55.50;;;;;;5115459;28;20014;-68
2021/11/26 15:58:44;;;;;;;;;;;23.60;55.60;;;;;;5115173;28;20006;-66
2021/11/26 16:01:11;;;;;;;;;;;23.60;55.50;;;;;;5106075;28;19931;-67
2021/11/26 16:03:36;;;;;;;;;;;23.60;55.50;;;;;;5076533;28;20359;-67
2021/11/26 16:06:02;;;;;;;;;;;23.60;55.70;;;;;;5072126;28;19923;-67
2021/11/26 16:08:28;;;;;;;;;;;23.60;55.50;;;;;;5080309;28;19912;-67
2021/11/26 16:10:54;;;;;;;;;;;23.60;55.50;;;;;;5074212;28;19955;-67
2021/11/26 16:13:20;;;;;;;;;;;23.60;55.40;;;;;;5093103;28;20406;-67
2021/11/26 16:15:45;;;;;;;;;;;23.60;55.30;;;;;;5093792;28;19974;-67
2021/11/26 16:18:11;;;;;;;;;;;23.60;55.30;;;;;;5093567;28;19915;-67
2021/11/26 16:20:36;;;;;;;;;;;23.60;55.30;;;;;;5094490;28;19912;-67
2021/11/26 16:23:02;;;;;;;;;;;23.60;55.30;;;;;;5094341;28;19912;-66
2021/11/26 16:25:27;;;;;;;;;;;23.60;55.20;;;;;;5094284;28;20382;-68
2021/11/26 16:27:54;;;;;;;;;;;23.60;55.20;;;;;;5094129;28;19909;-66
2021/11/26 16:30:21;;;;;;;;;;;23.60;55.20;;;;;;5093605;28;20322;-66
2021/11/26 16:35:37;;;;;;;;;;;23.60;55.10;;;;;;5114141;28;19922;-69
2021/11/26 16:38:03;;;;;;;;;;;23.60;55.10;;;;;;5114106;28;19920;-69
2021/11/26 16:40:28;;;;;;;;;;;23.60;55.10;;;;;;5114582;28;19908;-68
2021/11/26 16:42:54;;;;;;;;;;;23.60;55.10;;;;;;5114484;28;20379;-68
2021/11/26 16:45:22;;;;;;;;;;;23.60;55.10;;;;;;5113859;28;19970;-67
2021/11/26 16:47:51;;;;;;;;;;;23.60;55.10;;;;;;5114583;28;20026;-67
2021/11/26 16:50:19;;;;;;;;;;;23.60;55.10;;;;;;5114319;28;19964;-66
2021/11/26 16:52:44;;;;;;;;;;;23.60;55.10;;;;;;5114385;28;19908;-68
2021/11/26 16:55:10;;;;;;;;;;;23.60;55.20;;;;;;5114175;28;20279;-70
2021/11/26 16:57:35;;;;;;;;;;;23.60;55.20;;;;;;5114319;28;20389;-71
2021/11/26 17:00:00;;;;;;;;;;;23.60;55.20;;;;;;5113827;28;20416;-71
2021/11/26 17:02:26;;;;;;;;;;;23.60;55.20;;;;;;5114281;28;19947;-71
2021/11/26 17:04:51;;;;;;;;;;;23.60;55.30;;;;;;5114257;28;20002;-72
2021/11/26 17:07:17;;;;;;;;;;;23.60;55.40;;;;;;5073184;28;19916;-72
2021/11/26 17:09:43;;;;;;;;;;;23.60;55.40;;;;;;5070888;28;19916;-72
2021/11/26 17:12:09;;;;;;;;;;;23.60;55.40;;;;;;5070758;28;19920;-72
2021/11/26 17:14:34;;;;;;;;;;;23.60;55.50;;;;;;5052699;28;19909;-73
2021/11/26 17:16:59;;;;;;;;;;;23.70;55.50;;;;;;5070459;28;19920;-73
2021/11/26 17:19:25;;;;;;;;;;;23.70;55.60;;;;;;5070970;28;19916;-75
2021/11/26 17:21:50;;;;;;;;;;;23.70;55.60;;;;;;5070760;28;19924;-73
2021/11/26 17:24:16;;;;;;;;;;;23.70;55.60;;;;;;5070632;28;19935;-74
2021/11/26 17:26:42;;;;;;;;;;;23.70;55.60;;;;;;5070556;28;19920;-73
2021/11/26 17:29:07;;;;;;;;;;;23.70;55.60;;;;;;5069592;28;19909;-73
2021/11/26 17:31:34;;;;;;;;;;;23.70;55.60;;;;;;5069909;28;19920;-74
2021/11/26 17:34:00;;;;;;;;;;;23.70;56.20;;;;;;5070371;28;19923;-73
2021/11/26 17:36:26;;;;;;;;;;;23.70;55.60;;;;;;5070384;28;19916;-73
2021/11/26 17:38:52;;;;;;;;;;;23.70;55.70;;;;;;5070396;28;19915;-73
2021/11/26 17:41:18;;;;;;;;;;;23.70;55.70;;;;;;5082427;28;20368;-73
2021/11/26 17:43:43;;;;;;;;;;;23.70;55.70;;;;;;5084990;28;19916;-73
2021/11/26 17:46:09;;;;;;;;;;;23.70;55.70;;;;;;5089294;28;19924;-73
2021/11/26 17:48:34;;;;;;;;;;;23.70;55.70;;;;;;5091489;28;20395;-72
2021/11/26 17:51:00;;;;;;;;;;;23.70;55.70;;;;;;5092687;28;20310;-71
2021/11/26 17:53:25;;;;;;;;;;;23.60;55.70;;;;;;5092428;28;20123;-71
2021/11/26 17:55:51;;;;;;;;;;;23.60;55.60;;;;;;5092680;28;19917;-71
2021/11/26 17:58:17;;;;;;;;;;;23.60;55.60;;;;;;5092142;28;20323;-73
2021/11/26 18:00:43;;;;;;;;;;;23.60;55.60;;;;;;5092673;28;19912;-71
2021/11/26 18:03:17;;;;;;;;;;;23.60;55.60;;;;;;5074385;28;19953;-70
2021/11/26 18:05:46;;;;;;;;;;;23.60;55.70;;;;;;5092773;28;19958;-69
2021/11/26 18:08:12;;;;;;;;;;;23.60;55.60;;;;;;5092589;28;19908;-66
2021/11/26 18:10:47;;;;;;;;;;;23.60;55.60;;;;;;5092517;28;20070;-67
2021/11/26 18:13:13;;;;;;;;;;;23.60;55.60;;;;;;5082828;28;19912;-69
2021/11/26 18:15:42;;;;;;;;;;;23.60;55.60;;;;;;5069703;28;19921;-70
2021/11/26 18:18:09;;;;;;;;;;;23.60;55.60;;;;;;5069632;28;20254;-70
2021/11/26 18:20:35;;;;;;;;;;;23.70;55.70;;;;;;5069757;28;19952;-70
2021/11/26 18:23:01;;;;;;;;;;;23.70;55.60;;;;;;5069407;28;20377;-71
2021/11/26 18:25:27;;;;;;;;;;;23.70;55.60;;;;;;5069101;28;19919;-71
2021/11/26 18:27:52;;;;;;;;;;;23.70;55.60;;;;;;5068973;28;20387;-72
2021/11/26 18:30:18;;;;;;;;;;;23.70;55.60;;;;;;5051403;28;20376;-70
2021/11/26 18:32:44;;;;;;;;;;;23.70;55.60;;;;;;5069303;28;19962;-71
2021/11/26 18:35:10;;;;;;;;;;;23.70;55.60;;;;;;5069162;28;19913;-71
2021/11/26 18:37:36;;;;;;;;;;;23.70;55.60;;;;;;5051084;28;19966;-71
2021/11/26 18:40:02;;;;;;;;;;;23.70;55.70;;;;;;5069298;28;19912;-71
2021/11/26 18:42:29;;;;;;;;;;;23.70;55.60;;;;;;5068550;28;19913;-72
2021/11/26 18:44:55;;;;;;;;;;;23.70;55.60;;;;;;5068751;28;19909;-71
2021/11/26 18:47:21;;;;;;;;;;;23.70;55.60;;;;;;5069271;28;19991;-71
2021/11/26 18:49:47;;;;;;;;;;;23.80;55.70;;;;;;5068897;28;19935;-71
2021/11/26 18:52:13;;;;;;;;;;;23.70;55.60;;;;;;5069080;28;19934;-71
2021/11/26 18:54:40;;;;;;;;;;;23.70;55.70;;;;;;5068994;28;20372;-70
2021/11/26 18:57:06;;;;;;;;;;;23.70;55.60;;;;;;5068645;28;20412;-71
2021/11/26 18:59:32;;;;;;;;;;;23.70;55.60;;;;;;5068962;28;19908;-71
2021/11/26 19:01:57;;;;;;;;;;;23.70;55.60;;;;;;5068870;28;19915;-71
2021/11/26 19:04:24;;;;;;;;;;;23.80;55.70;;;;;;5069208;28;19917;-71
2021/11/26 19:06:49;;;;;;;;;;;23.70;55.60;;;;;;5068948;28;20298;-71
2021/11/26 19:09:15;;;;;;;;;;;23.70;55.60;;;;;;5068896;28;19913;-72
2021/11/26 19:11:42;;;;;;;;;;;23.70;55.60;;;;;;5068386;28;19916;-72
2021/11/26 19:14:07;;;;;;;;;;;23.70;55.70;;;;;;5068610;28;19913;-71
2021/11/26 19:16:33;;;;;;;;;;;23.70;55.60;;;;;;5068856;28;19928;-71
2021/11/26 19:18:58;;;;;;;;;;;23.70;55.60;;;;;;5068929;28;19969;-71
2021/11/26 19:21:28;;;;;;;;;;;23.70;55.50;;;;;;5068775;28;19916;-71
2021/11/26 19:23:53;;;;;;;;;;;23.80;55.60;;;;;;5068799;28;19950;-71
2021/11/26 19:26:19;;;;;;;;;;;23.70;55.50;;;;;;5068083;28;20299;-70
2021/11/26 19:28:44;;;;;;;;;;;23.70;55.50;;;;;;5068725;28;19999;-70
2021/11/26 19:31:10;;;;;;;;;;;23.70;55.50;;;;;;5068971;28;19913;-70
2021/11/26 19:33:36;;;;;;;;;;;23.70;55.50;;;;;;5068657;28;19913;-70
2021/11/26 19:36:02;;;;;;;;;;;23.80;55.50;;;;;;5068471;28;19965;-70
2021/11/26 19:38:27;;;;;;;;;;;23.80;55.50;;;;;;5068471;28;19995;-70
2021/11/26 19:40:53;;;;;;;;;;;23.80;55.50;;;;;;5068104;28;19909;-71
2021/11/26 19:43:19;;;;;;;;;;;23.70;55.50;;;;;;5068522;28;19995;-70
2021/11/26 19:45:45;;;;;;;;;;;23.70;55.50;;;;;;5068460;28;20463;-71
2021/11/26 19:48:10;;;;;;;;;;;23.70;55.40;;;;;;5068503;28;19915;-71
2021/11/26 19:50:36;;;;;;;;;;;23.80;55.50;;;;;;5068540;28;19912;-70
2021/11/26 19:53:01;;;;;;;;;;;23.70;55.40;;;;;;5069135;28;20368;-70
2021/11/26 19:55:27;;;;;;;;;;;23.80;55.40;;;;;;5087360;28;19919;-70
2021/11/26 19:57:55;;;;;;;;;;;23.80;55.40;;;;;;5072473;28;19913;-70
2021/11/26 20:00:22;;;;;;;;;;;23.80;55.40;;;;;;5071833;28;19915;-71
2021/11/26 20:02:47;;;;;;;;;;;23.80;55.40;;;;;;5071951;28;19919;-71
2021/11/26 20:05:13;;;;;;;;;;;23.80;55.40;;;;;;5071862;28;20047;-71
2021/11/26 20:07:39;;;;;;;;;;;23.80;55.40;;;;;;5071498;28;19919;-71
2021/11/26 20:10:06;;;;;;;;;;;23.70;55.30;;;;;;5071925;28;19908;-71
2021/11/26 20:12:31;;;;;;;;;;;23.80;55.30;;;;;;5071567;28;19943;-71
2021/11/26 20:14:58;;;;;;;;;;;23.80;55.30;;;;;;5071702;28;20073;-70
2021/11/26 20:17:24;;;;;;;;;;;23.80;55.30;;;;;;5071702;28;20353;-71
2021/11/26 20:19:50;;;;;;;;;;;23.80;55.30;;;;;;5071883;28;19915;-70
2021/11/26 20:22:15;;;;;;;;;;;23.80;55.30;;;;;;5082926;28;19912;-71
2021/11/26 20:24:41;;;;;;;;;;;23.80;55.20;;;;;;5088193;28;19908;-70
2021/11/26 20:27:06;;;;;;;;;;;23.80;55.20;;;;;;5092239;28;19908;-71
2021/11/26 20:29:32;;;;;;;;;;;23.80;55.20;;;;;;5093698;28;19955;-68
2021/11/26 20:31:57;;;;;;;;;;;23.80;55.20;;;;;;5093920;28;19909;-72
2021/11/26 20:34:24;;;;;;;;;;;23.80;55.10;;;;;;5094398;28;19919;-70
2021/11/26 20:36:50;;;;;;;;;;;23.80;55.70;;;;;;5093652;28;19916;-71
2021/11/26 20:39:16;;;;;;;;;;;23.80;55.10;;;;;;5094168;28;20265;-71
2021/11/26 20:41:43;;;;;;;;;;;23.80;55.10;;;;;;5094150;28;19915;-71
2021/11/26 20:44:12;;;;;;;;;;;23.80;55.10;;;;;;5094281;28;19954;-71
2021/11/26 20:46:38;;;;;;;;;;;23.80;55.10;;;;;;5093962;28;19920;-72
2021/11/26 20:49:08;;;;;;;;;;;23.80;55.10;;;;;;5094110;28;19908;-71
2021/11/26 20:51:35;;;;;;;;;;;23.80;55.10;;;;;;5093543;28;19912;-71
2021/11/26 20:54:04;;;;;;;;;;;23.80;55.10;;;;;;5093886;28;19915;-71
2021/11/26 20:56:30;;;;;;;;;;;23.80;55.10;;;;;;5093903;28;20414;-71
2021/11/26 20:58:55;;;;;;;;;;;23.80;55.10;;;;;;5093837;28;19908;-72
2021/11/26 21:01:22;;;;;;;;;;;23.80;55.00;;;;;;5093904;28;19915;-70
2021/11/26 21:03:47;;;;;;;;;;;23.80;55.10;;;;;;5093848;28;19908;-71
2021/11/26 21:06:12;;;;;;;;;;;23.80;55.00;;;;;;5093152;28;19977;-71
2021/11/26 21:08:38;;;;;;;;;;;23.80;55.00;;;;;;5093597;28;19918;-66
2021/11/26 21:11:03;;;;;;;;;;;23.80;55.00;;;;;;5075370;28;19948;-67
2021/11/26 21:13:29;;;;;;;;;;;23.80;55.00;;;;;;5093508;28;19915;-71